sensor_id;sensor_type;location;lat;lon;timestamp;P1;durP1;ratioP1;P2;durP2;ratioP2
59207;SDS011;44977;53.132;6.408;2023-04-24T00:02:13;8.70;;;5.68;;
59207;SDS011;44977;53.132;6.408;2023-04-24T00:07:14;7.93;;;5.30;;
59207;SDS011;44977;53.132;6.408;2023-04-24T00:12:16;8.90;;;5.22;;
59207;SDS011;44977;53.132;6.408;2023-04-24T00:17:17;7.60;;;5.40;;
59207;SDS011;44977;53.132;6.408;2023-04-24T00:22:21;8.60;;;4.88;;
59207;SDS011;44977;53.132;6.408;2023-04-24T00:27:22;7.47;;;4.28;;
59207;SDS011;44977;53.132;6.408;2023-04-24T00:32:23;6.22;;;3.95;;
59207;SDS011;44977;53.132;6.408;2023-04-24T00:37:24;6.80;;;4.18;;
59207;SDS011;44977;53.132;6.408;2023-04-24T00:42:25;7.13;;;4.50;;
59207;SDS011;44977;53.132;6.408;2023-04-24T00:47:26;5.85;;;3.58;;
59207;SDS011;44977;53.132;6.408;2023-04-24T00:52:28;4.32;;;2.20;;
59207;SDS011;44977;53.132;6.408;2023-04-24T00:57:31;3.17;;;1.70;;
59207;SDS011;44977;53.132;6.408;2023-04-24T01:02:31;2.72;;;1.60;;
59207;SDS011;44977;53.132;6.408;2023-04-24T01:07:34;3.38;;;1.50;;
59207;SDS011;44977;53.132;6.408;2023-04-24T01:12:35;2.40;;;1.42;;
59207;SDS011;44977;53.132;6.408;2023-04-24T01:17:37;3.25;;;1.70;;
59207;SDS011;44977;53.132;6.408;2023-04-24T01:22:39;2.75;;;1.45;;
59207;SDS011;44977;53.132;6.408;2023-04-24T01:27:41;2.90;;;1.70;;
59207;SDS011;44977;53.132;6.408;2023-04-24T01:32:41;2.35;;;1.60;;
59207;SDS011;44977;53.132;6.408;2023-04-24T01:37:44;2.67;;;1.85;;
59207;SDS011;44977;53.132;6.408;2023-04-24T01:42:45;3.15;;;1.92;;
59207;SDS011;44977;53.132;6.408;2023-04-24T01:47:45;3.00;;;1.75;;
59207;SDS011;44977;53.132;6.408;2023-04-24T01:52:47;2.88;;;1.92;;
59207;SDS011;44977;53.132;6.408;2023-04-24T01:57:48;3.80;;;2.45;;
59207;SDS011;44977;53.132;6.408;2023-04-24T02:02:49;3.70;;;2.40;;
59207;SDS011;44977;53.132;6.408;2023-04-24T02:07:50;4.80;;;3.10;;
59207;SDS011;44977;53.132;6.408;2023-04-24T02:12:51;4.65;;;3.40;;
59207;SDS011;44977;53.132;6.408;2023-04-24T02:17:51;6.30;;;4.30;;
59207;SDS011;44977;53.132;6.408;2023-04-24T02:22:52;6.22;;;4.60;;
59207;SDS011;44977;53.132;6.408;2023-04-24T02:27:53;6.47;;;4.82;;
59207;SDS011;44977;53.132;6.408;2023-04-24T02:32:53;6.57;;;5.13;;
59207;SDS011;44977;53.132;6.408;2023-04-24T02:37:55;6.88;;;5.00;;
59207;SDS011;44977;53.132;6.408;2023-04-24T02:42:55;7.57;;;5.47;;
59207;SDS011;44977;53.132;6.408;2023-04-24T02:47:56;7.60;;;6.13;;
59207;SDS011;44977;53.132;6.408;2023-04-24T02:52:57;7.00;;;5.50;;
59207;SDS011;44977;53.132;6.408;2023-04-24T02:57:57;9.07;;;6.90;;
59207;SDS011;44977;53.132;6.408;2023-04-24T03:02:58;8.55;;;6.80;;
59207;SDS011;44977;53.132;6.408;2023-04-24T03:07:59;8.50;;;7.43;;
59207;SDS011;44977;53.132;6.408;2023-04-24T03:13:00;9.65;;;7.55;;
59207;SDS011;44977;53.132;6.408;2023-04-24T03:18:01;10.05;;;8.48;;
59207;SDS011;44977;53.132;6.408;2023-04-24T03:23:02;9.73;;;8.50;;
59207;SDS011;44977;53.132;6.408;2023-04-24T03:28:03;11.48;;;9.70;;
59207;SDS011;44977;53.132;6.408;2023-04-24T03:33:04;10.95;;;9.85;;
59207;SDS011;44977;53.132;6.408;2023-04-24T03:38:05;12.00;;;10.80;;
59207;SDS011;44977;53.132;6.408;2023-04-24T03:43:06;13.65;;;12.25;;
59207;SDS011;44977;53.132;6.408;2023-04-24T03:48:06;14.02;;;12.73;;
59207;SDS011;44977;53.132;6.408;2023-04-24T03:53:07;13.80;;;12.48;;
59207;SDS011;44977;53.132;6.408;2023-04-24T03:58:08;13.40;;;12.00;;
59207;SDS011;44977;53.132;6.408;2023-04-24T04:03:09;12.95;;;11.65;;
59207;SDS011;44977;53.132;6.408;2023-04-24T04:08:09;12.80;;;11.60;;
59207;SDS011;44977;53.132;6.408;2023-04-24T04:13:10;11.68;;;10.40;;
59207;SDS011;44977;53.132;6.408;2023-04-24T04:18:11;10.80;;;9.70;;
59207;SDS011;44977;53.132;6.408;2023-04-24T04:23:11;9.80;;;8.80;;
59207;SDS011;44977;53.132;6.408;2023-04-24T04:28:12;8.82;;;7.88;;
59207;SDS011;44977;53.132;6.408;2023-04-24T04:33:13;9.02;;;8.02;;
59207;SDS011;44977;53.132;6.408;2023-04-24T04:38:14;10.43;;;8.85;;
59207;SDS011;44977;53.132;6.408;2023-04-24T04:43:16;8.30;;;7.38;;
59207;SDS011;44977;53.132;6.408;2023-04-24T04:48:17;9.23;;;6.82;;
59207;SDS011;44977;53.132;6.408;2023-04-24T04:53:18;7.68;;;5.45;;
59207;SDS011;44977;53.132;6.408;2023-04-24T04:58:19;6.57;;;4.32;;
59207;SDS011;44977;53.132;6.408;2023-04-24T05:03:20;5.55;;;2.90;;
59207;SDS011;44977;53.132;6.408;2023-04-24T05:08:20;3.75;;;2.05;;
59207;SDS011;44977;53.132;6.408;2023-04-24T05:13:21;3.25;;;1.70;;
59207;SDS011;44977;53.132;6.408;2023-04-24T05:18:22;3.63;;;1.83;;
59207;SDS011;44977;53.132;6.408;2023-04-24T05:23:22;3.10;;;1.75;;
59207;SDS011;44977;53.132;6.408;2023-04-24T05:28:23;3.88;;;2.15;;
59207;SDS011;44977;53.132;6.408;2023-04-24T05:33:28;5.72;;;2.38;;
59207;SDS011;44977;53.132;6.408;2023-04-24T05:38:28;6.07;;;2.70;;
59207;SDS011;44977;53.132;6.408;2023-04-24T05:43:29;4.13;;;1.80;;
59207;SDS011;44977;53.132;6.408;2023-04-24T05:48:30;3.75;;;2.03;;
59207;SDS011;44977;53.132;6.408;2023-04-24T05:53:30;6.05;;;2.78;;
59207;SDS011;44977;53.132;6.408;2023-04-24T05:58:31;5.53;;;2.88;;
59207;SDS011;44977;53.132;6.408;2023-04-24T06:03:32;6.25;;;3.30;;
59207;SDS011;44977;53.132;6.408;2023-04-24T06:08:33;8.13;;;3.75;;
59207;SDS011;44977;53.132;6.408;2023-04-24T06:13:37;7.47;;;4.38;;
59207;SDS011;44977;53.132;6.408;2023-04-24T06:18:37;9.30;;;4.90;;
59207;SDS011;44977;53.132;6.408;2023-04-24T06:23:38;7.22;;;4.57;;
59207;SDS011;44977;53.132;6.408;2023-04-24T06:28:39;8.65;;;5.22;;
59207;SDS011;44977;53.132;6.408;2023-04-24T06:33:40;9.38;;;4.80;;
59207;SDS011;44977;53.132;6.408;2023-04-24T06:38:40;8.32;;;4.80;;
59207;SDS011;44977;53.132;6.408;2023-04-24T06:43:41;7.82;;;4.70;;
59207;SDS011;44977;53.132;6.408;2023-04-24T06:48:42;8.52;;;4.60;;
59207;SDS011;44977;53.132;6.408;2023-04-24T06:53:43;6.05;;;3.55;;
59207;SDS011;44977;53.132;6.408;2023-04-24T06:58:44;6.07;;;2.80;;
59207;SDS011;44977;53.132;6.408;2023-04-24T07:03:45;7.60;;;3.20;;
59207;SDS011;44977;53.132;6.408;2023-04-24T07:08:46;5.82;;;2.72;;
59207;SDS011;44977;53.132;6.408;2023-04-24T07:13:47;6.82;;;2.75;;
59207;SDS011;44977;53.132;6.408;2023-04-24T07:18:48;8.25;;;3.50;;
59207;SDS011;44977;53.132;6.408;2023-04-24T07:23:48;7.15;;;3.22;;
59207;SDS011;44977;53.132;6.408;2023-04-24T07:28:50;6.57;;;2.67;;
59207;SDS011;44977;53.132;6.408;2023-04-24T07:33:50;9.15;;;3.33;;
59207;SDS011;44977;53.132;6.408;2023-04-24T07:38:51;8.63;;;2.60;;
59207;SDS011;44977;53.132;6.408;2023-04-24T07:43:52;7.55;;;3.47;;
59207;SDS011;44977;53.132;6.408;2023-04-24T07:48:53;12.07;;;6.70;;
59207;SDS011;44977;53.132;6.408;2023-04-24T07:53:54;15.02;;;9.15;;
59207;SDS011;44977;53.132;6.408;2023-04-24T07:58:55;15.35;;;10.82;;
59207;SDS011;44977;53.132;6.408;2023-04-24T08:03:56;19.63;;;13.68;;
59207;SDS011;44977;53.132;6.408;2023-04-24T08:08:57;19.55;;;14.32;;
59207;SDS011;44977;53.132;6.408;2023-04-24T08:13:58;20.17;;;15.05;;
59207;SDS011;44977;53.132;6.408;2023-04-24T08:18:58;21.30;;;15.25;;
59207;SDS011;44977;53.132;6.408;2023-04-24T08:23:59;20.13;;;15.00;;
59207;SDS011;44977;53.132;6.408;2023-04-24T08:29:00;19.88;;;13.98;;
59207;SDS011;44977;53.132;6.408;2023-04-24T08:34:01;20.20;;;14.45;;
59207;SDS011;44977;53.132;6.408;2023-04-24T08:39:02;22.58;;;14.70;;
59207;SDS011;44977;53.132;6.408;2023-04-24T08:44:02;26.13;;;14.55;;
59207;SDS011;44977;53.132;6.408;2023-04-24T08:49:03;19.17;;;13.98;;
59207;SDS011;44977;53.132;6.408;2023-04-24T08:54:05;22.88;;;14.77;;
59207;SDS011;44977;53.132;6.408;2023-04-24T08:59:07;19.17;;;14.43;;
59207;SDS011;44977;53.132;6.408;2023-04-24T09:04:09;18.75;;;13.70;;
59207;SDS011;44977;53.132;6.408;2023-04-24T09:09:13;19.23;;;12.05;;
59207;SDS011;44977;53.132;6.408;2023-04-24T09:14:17;16.30;;;11.73;;
59207;SDS011;44977;53.132;6.408;2023-04-24T09:19:17;14.15;;;10.07;;
59207;SDS011;44977;53.132;6.408;2023-04-24T09:24:19;15.07;;;9.00;;
59207;SDS011;44977;53.132;6.408;2023-04-24T09:29:22;13.13;;;8.20;;
59207;SDS011;44977;53.132;6.408;2023-04-24T09:34:24;14.05;;;8.40;;
59207;SDS011;44977;53.132;6.408;2023-04-24T09:39:25;13.43;;;8.65;;
59207;SDS011;44977;53.132;6.408;2023-04-24T09:44:27;13.43;;;6.90;;
59207;SDS011;44977;53.132;6.408;2023-04-24T09:49:28;15.77;;;7.05;;
59207;SDS011;44977;53.132;6.408;2023-04-24T09:54:30;13.68;;;7.32;;
59207;SDS011;44977;53.132;6.408;2023-04-24T09:59:31;14.05;;;7.30;;
59207;SDS011;44977;53.132;6.408;2023-04-24T10:04:31;13.55;;;5.80;;
59207;SDS011;44977;53.132;6.408;2023-04-24T10:09:32;11.35;;;5.15;;
59207;SDS011;44977;53.132;6.408;2023-04-24T10:14:33;10.43;;;4.85;;
59207;SDS011;44977;53.132;6.408;2023-04-24T10:19:35;12.18;;;4.85;;
59207;SDS011;44977;53.132;6.408;2023-04-24T10:24:37;17.02;;;5.18;;
59207;SDS011;44977;53.132;6.408;2023-04-24T10:29:38;9.43;;;3.60;;
59207;SDS011;44977;53.132;6.408;2023-04-24T10:34:40;7.82;;;2.88;;
59207;SDS011;44977;53.132;6.408;2023-04-24T10:39:40;10.57;;;3.63;;
59207;SDS011;44977;53.132;6.408;2023-04-24T10:44:41;8.02;;;3.05;;
59207;SDS011;44977;53.132;6.408;2023-04-24T10:49:42;8.75;;;3.17;;
59207;SDS011;44977;53.132;6.408;2023-04-24T10:54:46;12.75;;;3.42;;
59207;SDS011;44977;53.132;6.408;2023-04-24T10:59:48;9.40;;;3.30;;
59207;SDS011;44977;53.132;6.408;2023-04-24T11:04:50;10.07;;;3.05;;
59207;SDS011;44977;53.132;6.408;2023-04-24T11:09:57;10.57;;;3.22;;
59207;SDS011;44977;53.132;6.408;2023-04-24T11:15:02;8.93;;;2.75;;
59207;SDS011;44977;53.132;6.408;2023-04-24T11:20:04;8.23;;;2.95;;
59207;SDS011;44977;53.132;6.408;2023-04-24T11:25:09;10.98;;;3.03;;
59207;SDS011;44977;53.132;6.408;2023-04-24T11:30:12;9.10;;;2.88;;
59207;SDS011;44977;53.132;6.408;2023-04-24T11:35:21;6.95;;;2.30;;
59207;SDS011;44977;53.132;6.408;2023-04-24T11:40:27;8.13;;;2.33;;
59207;SDS011;44977;53.132;6.408;2023-04-24T11:45:28;7.13;;;2.35;;
59207;SDS011;44977;53.132;6.408;2023-04-24T11:50:30;8.90;;;2.47;;
59207;SDS011;44977;53.132;6.408;2023-04-24T11:55:31;6.93;;;2.00;;
59207;SDS011;44977;53.132;6.408;2023-04-24T12:00:32;7.82;;;1.98;;
59207;SDS011;44977;53.132;6.408;2023-04-24T12:05:34;8.65;;;2.20;;
59207;SDS011;44977;53.132;6.408;2023-04-24T12:10:36;9.65;;;2.45;;
59207;SDS011;44977;53.132;6.408;2023-04-24T12:15:39;7.47;;;1.98;;
59207;SDS011;44977;53.132;6.408;2023-04-24T12:20:40;9.00;;;2.08;;
59207;SDS011;44977;53.132;6.408;2023-04-24T12:25:41;7.00;;;2.05;;
59207;SDS011;44977;53.132;6.408;2023-04-24T12:30:48;5.03;;;1.58;;
59207;SDS011;44977;53.132;6.408;2023-04-24T12:35:51;9.02;;;1.65;;
59207;SDS011;44977;53.132;6.408;2023-04-24T12:41:02;8.57;;;1.77;;
59207;SDS011;44977;53.132;6.408;2023-04-24T12:46:04;9.23;;;1.83;;
59207;SDS011;44977;53.132;6.408;2023-04-24T12:51:08;7.28;;;1.75;;
59207;SDS011;44977;53.132;6.408;2023-04-24T12:56:08;7.00;;;1.98;;
59207;SDS011;44977;53.132;6.408;2023-04-24T13:01:09;8.95;;;2.22;;
59207;SDS011;44977;53.132;6.408;2023-04-24T13:06:10;8.20;;;1.90;;
59207;SDS011;44977;53.132;6.408;2023-04-24T13:11:11;8.05;;;1.60;;
59207;SDS011;44977;53.132;6.408;2023-04-24T13:16:11;5.65;;;1.40;;
59207;SDS011;44977;53.132;6.408;2023-04-24T13:21:12;7.80;;;1.38;;
59207;SDS011;44977;53.132;6.408;2023-04-24T13:26:13;5.13;;;1.10;;
59207;SDS011;44977;53.132;6.408;2023-04-24T13:31:13;4.95;;;1.30;;
59207;SDS011;44977;53.132;6.408;2023-04-24T13:36:14;4.63;;;1.45;;
59207;SDS011;44977;53.132;6.408;2023-04-24T13:41:15;5.97;;;1.20;;
59207;SDS011;44977;53.132;6.408;2023-04-24T13:46:16;2.72;;;1.00;;
59207;SDS011;44977;53.132;6.408;2023-04-24T13:51:17;4.10;;;1.15;;
59207;SDS011;44977;53.132;6.408;2023-04-24T13:56:18;6.45;;;1.48;;
59207;SDS011;44977;53.132;6.408;2023-04-24T14:01:18;7.18;;;2.13;;
59207;SDS011;44977;53.132;6.408;2023-04-24T14:06:19;8.60;;;2.00;;
59207;SDS011;44977;53.132;6.408;2023-04-24T14:11:20;9.05;;;2.80;;
59207;SDS011;44977;53.132;6.408;2023-04-24T14:16:22;8.80;;;2.72;;
59207;SDS011;44977;53.132;6.408;2023-04-24T14:21:22;13.55;;;3.17;;
59207;SDS011;44977;53.132;6.408;2023-04-24T14:26:23;15.82;;;3.55;;
59207;SDS011;44977;53.132;6.408;2023-04-24T14:31:24;8.45;;;2.58;;
59207;SDS011;44977;53.132;6.408;2023-04-24T14:36:25;9.65;;;2.70;;
59207;SDS011;44977;53.132;6.408;2023-04-24T14:41:26;11.85;;;3.17;;
59207;SDS011;44977;53.132;6.408;2023-04-24T14:46:26;13.35;;;3.25;;
59207;SDS011;44977;53.132;6.408;2023-04-24T14:51:27;9.40;;;3.10;;
59207;SDS011;44977;53.132;6.408;2023-04-24T14:56:28;9.95;;;2.90;;
59207;SDS011;44977;53.132;6.408;2023-04-24T15:01:29;11.45;;;3.47;;
59207;SDS011;44977;53.132;6.408;2023-04-24T15:06:29;10.80;;;3.50;;
59207;SDS011;44977;53.132;6.408;2023-04-24T15:11:31;11.77;;;3.60;;
59207;SDS011;44977;53.132;6.408;2023-04-24T15:16:32;15.15;;;4.28;;
59207;SDS011;44977;53.132;6.408;2023-04-24T15:21:33;11.88;;;3.90;;
59207;SDS011;44977;53.132;6.408;2023-04-24T15:26:35;11.82;;;3.92;;
59207;SDS011;44977;53.132;6.408;2023-04-24T15:31:36;14.50;;;4.28;;
59207;SDS011;44977;53.132;6.408;2023-04-24T15:36:39;10.75;;;3.67;;
59207;SDS011;44977;53.132;6.408;2023-04-24T15:41:40;13.57;;;4.00;;
59207;SDS011;44977;53.132;6.408;2023-04-24T15:46:41;11.30;;;4.03;;
59207;SDS011;44977;53.132;6.408;2023-04-24T15:51:41;13.18;;;3.95;;
59207;SDS011;44977;53.132;6.408;2023-04-24T15:56:44;10.77;;;4.03;;
59207;SDS011;44977;53.132;6.408;2023-04-24T16:01:45;10.18;;;4.20;;
59207;SDS011;44977;53.132;6.408;2023-04-24T16:06:46;13.20;;;4.78;;
59207;SDS011;44977;53.132;6.408;2023-04-24T16:11:46;14.07;;;4.90;;
59207;SDS011;44977;53.132;6.408;2023-04-24T16:16:47;14.60;;;5.18;;
59207;SDS011;44977;53.132;6.408;2023-04-24T16:21:48;12.13;;;4.53;;
59207;SDS011;44977;53.132;6.408;2023-04-24T16:26:49;12.32;;;4.90;;
59207;SDS011;44977;53.132;6.408;2023-04-24T16:31:50;11.65;;;4.40;;
59207;SDS011;44977;53.132;6.408;2023-04-24T16:36:54;12.02;;;4.45;;
59207;SDS011;44977;53.132;6.408;2023-04-24T16:41:55;15.55;;;5.50;;
59207;SDS011;44977;53.132;6.408;2023-04-24T16:46:56;8.43;;;3.35;;
59207;SDS011;44977;53.132;6.408;2023-04-24T16:51:57;8.73;;;2.80;;
59207;SDS011;44977;53.132;6.408;2023-04-24T16:56:59;8.80;;;2.80;;
59207;SDS011;44977;53.132;6.408;2023-04-24T17:01:59;8.20;;;3.33;;
59207;SDS011;44977;53.132;6.408;2023-04-24T17:07:00;7.40;;;3.15;;
59207;SDS011;44977;53.132;6.408;2023-04-24T17:12:01;7.82;;;3.00;;
59207;SDS011;44977;53.132;6.408;2023-04-24T17:17:02;7.78;;;3.25;;
59207;SDS011;44977;53.132;6.408;2023-04-24T17:22:03;7.30;;;3.50;;
59207;SDS011;44977;53.132;6.408;2023-04-24T17:27:03;9.65;;;3.72;;
59207;SDS011;44977;53.132;6.408;2023-04-24T17:32:04;7.82;;;3.22;;
59207;SDS011;44977;53.132;6.408;2023-04-24T17:37:05;6.68;;;2.03;;
59207;SDS011;44977;53.132;6.408;2023-04-24T17:42:06;4.95;;;2.03;;
59207;SDS011;44977;53.132;6.408;2023-04-24T17:47:06;6.63;;;2.10;;
59207;SDS011;44977;53.132;6.408;2023-04-24T17:52:07;5.93;;;2.28;;
59207;SDS011;44977;53.132;6.408;2023-04-24T17:57:08;6.85;;;2.30;;
59207;SDS011;44977;53.132;6.408;2023-04-24T18:02:09;6.75;;;2.70;;
59207;SDS011;44977;53.132;6.408;2023-04-24T18:07:10;9.00;;;2.70;;
59207;SDS011;44977;53.132;6.408;2023-04-24T18:12:11;7.78;;;3.00;;
59207;SDS011;44977;53.132;6.408;2023-04-24T18:17:12;7.35;;;3.05;;
59207;SDS011;44977;53.132;6.408;2023-04-24T18:22:12;6.97;;;3.10;;
59207;SDS011;44977;53.132;6.408;2023-04-24T18:27:13;7.28;;;3.83;;
59207;SDS011;44977;53.132;6.408;2023-04-24T18:32:14;8.60;;;3.67;;
59207;SDS011;44977;53.132;6.408;2023-04-24T18:37:15;9.20;;;3.95;;
59207;SDS011;44977;53.132;6.408;2023-04-24T18:42:16;9.25;;;4.40;;
59207;SDS011;44977;53.132;6.408;2023-04-24T18:47:17;11.20;;;4.68;;
59207;SDS011;44977;53.132;6.408;2023-04-24T18:52:18;8.82;;;3.83;;
59207;SDS011;44977;53.132;6.408;2023-04-24T18:57:19;9.90;;;4.20;;
59207;SDS011;44977;53.132;6.408;2023-04-24T19:02:19;11.75;;;4.60;;
59207;SDS011;44977;53.132;6.408;2023-04-24T19:07:20;10.50;;;4.80;;
59207;SDS011;44977;53.132;6.408;2023-04-24T19:12:21;9.60;;;4.53;;
59207;SDS011;44977;53.132;6.408;2023-04-24T19:17:22;12.63;;;4.90;;
59207;SDS011;44977;53.132;6.408;2023-04-24T19:22:26;10.85;;;4.60;;
59207;SDS011;44977;53.132;6.408;2023-04-24T19:27:28;12.35;;;4.75;;
59207;SDS011;44977;53.132;6.408;2023-04-24T19:32:29;12.40;;;4.93;;
59207;SDS011;44977;53.132;6.408;2023-04-24T19:37:30;12.90;;;4.97;;
59207;SDS011;44977;53.132;6.408;2023-04-24T19:42:33;12.35;;;4.70;;
59207;SDS011;44977;53.132;6.408;2023-04-24T19:47:34;11.73;;;4.57;;
59207;SDS011;44977;53.132;6.408;2023-04-24T19:52:34;9.50;;;3.10;;
59207;SDS011;44977;53.132;6.408;2023-04-24T19:57:35;9.27;;;2.90;;
59207;SDS011;44977;53.132;6.408;2023-04-24T20:02:36;9.60;;;3.10;;
59207;SDS011;44977;53.132;6.408;2023-04-24T20:07:36;8.02;;;3.22;;
59207;SDS011;44977;53.132;6.408;2023-04-24T20:12:37;9.88;;;3.42;;
59207;SDS011;44977;53.132;6.408;2023-04-24T20:17:38;13.27;;;3.22;;
59207;SDS011;44977;53.132;6.408;2023-04-24T20:22:38;10.60;;;3.95;;
59207;SDS011;44977;53.132;6.408;2023-04-24T20:27:39;12.23;;;4.90;;
59207;SDS011;44977;53.132;6.408;2023-04-24T20:32:41;14.18;;;4.72;;
59207;SDS011;44977;53.132;6.408;2023-04-24T20:37:42;19.95;;;6.43;;
59207;SDS011;44977;53.132;6.408;2023-04-24T20:42:42;22.75;;;7.30;;
59207;SDS011;44977;53.132;6.408;2023-04-24T20:47:47;26.40;;;8.02;;
59207;SDS011;44977;53.132;6.408;2023-04-24T20:52:48;22.50;;;6.60;;
59207;SDS011;44977;53.132;6.408;2023-04-24T20:57:49;27.30;;;7.30;;
59207;SDS011;44977;53.132;6.408;2023-04-24T21:02:50;26.15;;;7.63;;
59207;SDS011;44977;53.132;6.408;2023-04-24T21:07:50;22.70;;;7.57;;
59207;SDS011;44977;53.132;6.408;2023-04-24T21:12:54;22.58;;;7.68;;
59207;SDS011;44977;53.132;6.408;2023-04-24T21:17:55;27.27;;;7.28;;
59207;SDS011;44977;53.132;6.408;2023-04-24T21:22:56;25.33;;;7.60;;
59207;SDS011;44977;53.132;6.408;2023-04-24T21:27:57;24.77;;;7.35;;
59207;SDS011;44977;53.132;6.408;2023-04-24T21:32:58;25.65;;;7.57;;
59207;SDS011;44977;53.132;6.408;2023-04-24T21:37:59;23.17;;;6.25;;
59207;SDS011;44977;53.132;6.408;2023-04-24T21:43:00;21.15;;;6.57;;
59207;SDS011;44977;53.132;6.408;2023-04-24T21:48:01;20.27;;;5.95;;
59207;SDS011;44977;53.132;6.408;2023-04-24T21:53:02;27.50;;;6.35;;
59207;SDS011;44977;53.132;6.408;2023-04-24T21:58:02;19.67;;;5.80;;
59207;SDS011;44977;53.132;6.408;2023-04-24T22:03:03;20.35;;;6.13;;
59207;SDS011;44977;53.132;6.408;2023-04-24T22:08:04;24.90;;;6.35;;
59207;SDS011;44977;53.132;6.408;2023-04-24T22:13:06;26.02;;;6.85;;
59207;SDS011;44977;53.132;6.408;2023-04-24T22:18:06;20.63;;;5.93;;
59207;SDS011;44977;53.132;6.408;2023-04-24T22:23:08;19.00;;;5.95;;
59207;SDS011;44977;53.132;6.408;2023-04-24T22:28:09;24.55;;;6.60;;
59207;SDS011;44977;53.132;6.408;2023-04-24T22:33:09;19.27;;;5.38;;
59207;SDS011;44977;53.132;6.408;2023-04-24T22:38:10;16.10;;;4.93;;
59207;SDS011;44977;53.132;6.408;2023-04-24T22:43:11;17.50;;;4.90;;
59207;SDS011;44977;53.132;6.408;2023-04-24T22:48:12;17.20;;;4.63;;
59207;SDS011;44977;53.132;6.408;2023-04-24T22:53:13;14.35;;;4.88;;
59207;SDS011;44977;53.132;6.408;2023-04-24T22:58:13;16.95;;;5.32;;
59207;SDS011;44977;53.132;6.408;2023-04-24T23:03:14;17.30;;;5.00;;
59207;SDS011;44977;53.132;6.408;2023-04-24T23:08:15;17.45;;;4.65;;
59207;SDS011;44977;53.132;6.408;2023-04-24T23:13:16;18.02;;;5.22;;
59207;SDS011;44977;53.132;6.408;2023-04-24T23:18:17;17.98;;;5.22;;
59207;SDS011;44977;53.132;6.408;2023-04-24T23:23:17;19.98;;;5.13;;
59207;SDS011;44977;53.132;6.408;2023-04-24T23:28:18;17.65;;;5.15;;
59207;SDS011;44977;53.132;6.408;2023-04-24T23:33:19;16.58;;;4.68;;
59207;SDS011;44977;53.132;6.408;2023-04-24T23:38:19;16.52;;;4.90;;
59207;SDS011;44977;53.132;6.408;2023-04-24T23:43:20;16.92;;;5.60;;
59207;SDS011;44977;53.132;6.408;2023-04-24T23:48:21;17.17;;;5.18;;
59207;SDS011;44977;53.132;6.408;2023-04-24T23:53:22;21.38;;;6.20;;
59207;SDS011;44977;53.132;6.408;2023-04-24T23:58:23;19.75;;;5.40;;
